createdAt,value
2022-10-19T00:00:43.218Z,89.45
2022-10-19T00:03:31.914Z,89.13
2022-10-19T00:06:30.400Z,89.32
2022-10-19T00:09:19.064Z,89.27
2022-10-19T00:12:05.753Z,88.92
2022-10-19T00:14:51.743Z,89.33
2022-10-19T00:17:38.177Z,89.41
2022-10-19T00:20:24.838Z,89.38
2022-10-19T00:23:11.179Z,89.58
2022-10-19T00:25:58.048Z,89.28
2022-10-19T00:28:44.386Z,89.16
2022-10-19T00:31:30.581Z,89.18
2022-10-19T00:34:17.669Z,89.17
2022-10-19T00:37:03.922Z,88.82
2022-10-19T00:42:37.391Z,88.58
2022-10-19T00:45:24.034Z,88.74
2022-10-19T00:48:18.677Z,88.79
2022-10-19T00:51:04.826Z,88.73
2022-10-19T00:53:51.461Z,88.86
2022-10-19T00:56:41.046Z,89.04
2022-10-19T00:59:31.260Z,89.17
2022-10-19T01:02:17.954Z,89.09
2022-10-19T01:05:04.770Z,89.42
2022-10-19T01:07:51.756Z,89.75
2022-10-19T01:11:39.567Z,89.74
2022-10-19T01:15:04.343Z,89.90
2022-10-19T01:18:14.906Z,89.63
2022-10-19T01:21:34.986Z,89.93
2022-10-19T01:24:27.119Z,90.17
2022-10-19T01:27:30.001Z,90.27
2022-10-19T01:30:42.017Z,90.07
2022-10-19T01:33:34.223Z,90.50
2022-10-19T01:36:32.255Z,91.45
2022-10-19T01:39:53.201Z,91.84
2022-10-19T01:43:03.719Z,92.20
2022-10-19T01:45:59.911Z,93.20
2022-10-19T01:48:56.438Z,93.29
2022-10-19T01:51:51.094Z,94.20
2022-10-19T01:54:42.570Z,94.99
2022-10-19T01:57:36.712Z,94.91
2022-10-19T02:00:25.293Z,95.26
2022-10-19T02:03:13.059Z,95.30
2022-10-19T02:06:01.649Z,95.85
2022-10-19T02:08:51.457Z,96.58
2022-10-19T02:11:38.243Z,96.74
2022-10-19T02:14:37.705Z,96.29
2022-10-19T02:17:32.927Z,96.65
2022-10-19T02:20:19.923Z,97.09
2022-10-19T02:23:07.090Z,97.22
2022-10-19T02:25:55.315Z,97.44
2022-10-19T02:28:45.326Z,97.12
2022-10-19T02:31:32.107Z,97.48
2022-10-19T02:34:18.423Z,97.14
2022-10-19T02:37:05.536Z,97.14
2022-10-19T02:39:51.715Z,97.02
2022-10-19T02:43:00.133Z,97.28
2022-10-19T02:45:59.789Z,97.35
2022-10-19T02:48:49.313Z,97.70
2022-10-19T02:51:39.464Z,98.04
2022-10-19T02:54:26.696Z,98.06
2022-10-19T02:57:15.589Z,98.17
2022-10-19T03:00:03.426Z,98.23
2022-10-19T03:02:49.449Z,98.56
2022-10-19T03:05:35.669Z,98.64
2022-10-19T03:08:22.149Z,98.96
2022-10-19T03:11:08.554Z,98.98
2022-10-19T03:13:54.886Z,99.44
2022-10-19T03:16:41.264Z,99.60
2022-10-19T03:19:28.023Z,99.71
2022-10-19T03:22:14.819Z,99.61
2022-10-19T03:25:01.067Z,99.80
2022-10-19T03:27:47.938Z,99.46
2022-10-19T03:30:34.456Z,99.81
2022-10-19T03:33:21.307Z,99.85
2022-10-19T03:36:31.280Z,99.70
2022-10-19T03:39:18.074Z,99.94
2022-10-19T03:42:04.668Z,99.56
2022-10-19T03:44:51.152Z,99.61
2022-10-19T03:47:37.580Z,99.81
2022-10-19T03:50:24.190Z,99.61
2022-10-19T03:53:10.659Z,99.88
2022-10-19T03:56:08.191Z,99.71
2022-10-19T03:58:57.119Z,100.00
2022-10-19T04:01:45.717Z,100.00
2022-10-19T04:04:31.613Z,100.00
2022-10-19T04:07:17.833Z,100.00
2022-10-19T04:10:04.850Z,100.00
2022-10-19T04:12:53.787Z,100.00
2022-10-19T04:15:40.561Z,100.00
2022-10-19T04:18:27.034Z,100.00
2022-10-19T04:21:36.867Z,99.86
2022-10-19T04:24:23.223Z,99.94
2022-10-19T04:27:09.717Z,100.00
2022-10-19T04:29:56.029Z,100.00
2022-10-19T04:32:42.034Z,100.00
2022-10-19T04:35:28.262Z,100.00
2022-10-19T04:38:14.779Z,100.00
2022-10-19T04:41:10.470Z,100.00
2022-10-19T04:43:59.460Z,100.00
2022-10-19T04:46:45.918Z,100.00
2022-10-19T04:49:32.053Z,100.00
2022-10-19T04:52:26.155Z,100.00
2022-10-19T04:55:12.510Z,100.00
2022-10-19T04:57:58.780Z,100.00
2022-10-19T05:00:45.010Z,100.00
2022-10-19T05:03:31.504Z,100.00
2022-10-19T05:06:17.964Z,100.00
2022-10-19T05:09:04.510Z,100.00
2022-10-19T05:11:51.035Z,100.00
2022-10-19T05:14:39.149Z,100.00
2022-10-19T05:17:32.233Z,100.00
2022-10-19T05:20:18.737Z,100.00
2022-10-19T05:23:07.268Z,100.00
2022-10-19T05:26:04.777Z,100.00
2022-10-19T05:28:57.428Z,100.00
2022-10-19T05:31:43.734Z,100.00
2022-10-19T05:34:30.156Z,100.00
2022-10-19T05:37:16.927Z,100.00
2022-10-19T05:40:03.709Z,100.00
2022-10-19T05:42:49.905Z,100.00
2022-10-19T05:45:36.363Z,100.00
2022-10-19T05:48:23.427Z,99.98
2022-10-19T05:51:13.054Z,99.75
2022-10-19T05:53:59.409Z,99.98
2022-10-19T05:56:46.906Z,99.65
2022-10-19T05:59:33.587Z,98.96
2022-10-19T06:02:20.311Z,98.69
2022-10-19T06:05:07.267Z,98.47
2022-10-19T06:07:53.782Z,97.91
2022-10-19T06:10:40.352Z,97.31
2022-10-19T06:13:26.839Z,97.22
2022-10-19T06:16:15.568Z,96.91
2022-10-19T06:19:01.799Z,96.36
2022-10-19T06:21:48.168Z,95.59
2022-10-19T06:24:34.748Z,95.37
2022-10-19T06:27:20.966Z,94.90
2022-10-19T06:30:08.218Z,93.81
2022-10-19T06:32:54.550Z,94.03
2022-10-19T06:35:42.450Z,92.79
2022-10-19T06:38:28.695Z,92.54
2022-10-19T06:41:16.237Z,92.74
2022-10-19T06:44:02.281Z,92.63
2022-10-19T06:46:48.686Z,92.41
2022-10-19T06:49:35.398Z,91.94
2022-10-19T06:52:21.923Z,92.76
2022-10-19T06:55:09.018Z,93.65
2022-10-19T06:57:55.425Z,92.47
2022-10-19T07:00:42.042Z,92.39
2022-10-19T07:03:29.819Z,91.73
2022-10-19T07:06:16.121Z,90.67
2022-10-19T07:09:03.252Z,89.30
2022-10-19T07:11:49.644Z,89.55
2022-10-19T07:14:39.033Z,85.35
2022-10-19T07:17:25.663Z,78.65
2022-10-19T07:20:11.911Z,71.30
2022-10-19T07:22:58.327Z,66.55
2022-10-19T07:25:44.943Z,65.28
2022-10-19T07:28:32.437Z,64.55
2022-10-19T07:31:23.511Z,66.58
2022-10-19T07:34:13.050Z,63.06
2022-10-19T07:36:59.655Z,59.21
2022-10-19T07:39:45.907Z,52.56
2022-10-19T07:42:32.367Z,50.50
2022-10-19T07:45:18.835Z,50.70
2022-10-19T07:48:05.635Z,53.08
2022-10-19T07:50:51.925Z,54.18
2022-10-19T07:53:38.834Z,56.93
2022-10-19T07:56:26.962Z,56.78
2022-10-19T07:59:15.642Z,56.85
2022-10-19T08:02:04.170Z,58.77
2022-10-19T08:05:09.118Z,60.23
2022-10-19T08:07:57.411Z,62.01
2022-10-19T08:10:44.066Z,63.76
2022-10-19T08:13:30.025Z,64.60
2022-10-19T08:16:36.783Z,65.45
2022-10-19T08:19:23.766Z,62.69
2022-10-19T08:22:10.683Z,57.53
2022-10-19T08:24:56.869Z,54.77
2022-10-19T08:27:43.237Z,53.51
2022-10-19T08:30:29.837Z,49.86
2022-10-19T08:33:16.135Z,51.09
2022-10-19T08:36:08.280Z,48.47
2022-10-19T08:38:54.894Z,47.54
2022-10-19T08:42:23.515Z,46.16
2022-10-19T08:48:42.346Z,52.25
2022-10-19T08:51:38.684Z,54.37
2022-10-19T08:54:40.082Z,56.35
2022-10-19T08:58:04.983Z,54.19
2022-10-19T09:01:13.531Z,49.51
2022-10-19T09:04:14.616Z,44.92
2022-10-19T09:07:28.819Z,42.01
2022-10-19T09:10:15.268Z,40.75
2022-10-19T09:14:03.782Z,38.21
2022-10-19T09:16:48.238Z,39.66
2022-10-19T09:19:37.091Z,39.21
2022-10-19T09:22:31.832Z,38.82
2022-10-19T09:25:22.603Z,39.61
2022-10-19T09:28:39.831Z,41.17
2022-10-19T09:31:42.840Z,42.32
2022-10-19T09:34:37.750Z,38.78
2022-10-19T09:37:26.572Z,37.30
2022-10-19T09:40:27.740Z,39.42
2022-10-19T09:43:21.197Z,39.81
2022-10-19T09:46:20.548Z,40.79
2022-10-19T09:49:07.450Z,42.58
2022-10-19T09:51:54.661Z,44.16
2022-10-19T09:54:41.270Z,46.59
2022-10-19T09:57:27.939Z,49.31
2022-10-19T10:00:24.948Z,51.14
2022-10-19T10:03:42.933Z,53.07
2022-10-19T10:06:29.309Z,53.00
2022-10-19T10:09:25.771Z,50.18
2022-10-19T10:12:15.487Z,49.75
2022-10-19T10:15:05.991Z,44.95
2022-10-19T10:17:52.924Z,39.60
2022-10-19T10:23:58.826Z,38.92
2022-10-19T10:26:53.924Z,40.59
2022-10-19T10:32:49.771Z,44.16
2022-10-19T10:35:36.694Z,45.34
2022-10-19T10:38:38.683Z,43.33
2022-10-19T10:41:28.416Z,43.67
2022-10-19T10:44:29.196Z,43.50
2022-10-19T10:47:20.051Z,38.92
2022-10-19T10:50:07.304Z,34.70
2022-10-19T10:53:06.580Z,33.50
2022-10-19T10:55:56.114Z,32.75
2022-10-19T10:58:52.733Z,30.80
2022-10-19T11:02:12.340Z,30.17
2022-10-19T11:05:17.015Z,30.16
2022-10-19T11:08:18.419Z,30.88
2022-10-19T11:11:26.998Z,34.79
2022-10-19T11:14:45.744Z,37.58
2022-10-19T11:17:38.722Z,39.33
2022-10-19T11:20:30.311Z,41.15
2022-10-19T11:23:41.708Z,42.29
2022-10-19T11:26:53.114Z,43.66
2022-10-19T11:29:57.937Z,45.04
2022-10-19T11:33:13.042Z,45.94
2022-10-19T11:36:15.144Z,47.15
2022-10-19T11:39:16.398Z,49.10
2022-10-19T11:42:42.092Z,51.32
2022-10-19T11:45:49.254Z,53.62
2022-10-19T11:48:56.699Z,55.28
2022-10-19T11:58:46.385Z,-1.00
2022-10-19T12:09:02.692Z,27.11
2022-10-19T12:12:12.190Z,55.47
2022-10-19T12:15:10.620Z,52.93
2022-10-19T12:18:08.195Z,51.99
2022-10-19T12:21:01.772Z,50.38
2022-10-19T12:23:48.365Z,49.54
2022-10-19T12:26:36.644Z,48.57
2022-10-19T12:29:46.634Z,48.05
2022-10-19T12:32:45.613Z,46.93
2022-10-19T12:36:01.920Z,46.36
2022-10-19T12:39:12.899Z,44.94
2022-10-19T12:42:38.823Z,44.30
2022-10-19T12:45:34.388Z,45.74
2022-10-19T12:48:22.350Z,46.76
2022-10-19T12:51:15.261Z,47.63
2022-10-19T12:54:09.056Z,47.79
2022-10-19T12:56:57.665Z,48.49
2022-10-19T12:59:44.328Z,48.45
2022-10-19T13:02:36.280Z,47.81
2022-10-19T13:05:27.144Z,46.77
2022-10-19T13:08:41.612Z,47.34
2022-10-19T13:11:28.336Z,47.37
2022-10-19T13:14:14.467Z,47.91
2022-10-19T13:17:02.495Z,47.57
2022-10-19T13:19:49.113Z,48.64
2022-10-19T13:22:35.631Z,51.32
2022-10-19T13:25:40.253Z,52.72
2022-10-19T13:28:26.249Z,55.01
2022-10-19T13:31:28.998Z,56.26
2022-10-19T13:34:15.978Z,57.31
2022-10-19T13:37:04.033Z,57.71
2022-10-19T13:39:50.347Z,58.86
2022-10-19T13:42:37.368Z,58.42
2022-10-19T13:45:24.365Z,59.33
2022-10-19T13:48:25.949Z,60.52
2022-10-19T13:51:47.346Z,61.47
2022-10-19T13:55:17.420Z,60.55
2022-10-19T13:58:24.890Z,60.40
2022-10-19T14:01:31.722Z,60.65
2022-10-19T14:05:07.239Z,60.99
2022-10-19T14:08:37.105Z,61.83
2022-10-19T14:12:06.402Z,62.21
2022-10-19T14:14:55.768Z,61.69
2022-10-19T14:17:42.601Z,61.93
2022-10-19T14:20:38.455Z,61.55
2022-10-19T14:23:30.998Z,61.71
2022-10-19T14:26:22.753Z,61.48
2022-10-19T14:29:12.933Z,61.33
2022-10-19T14:31:59.822Z,61.22
2022-10-19T14:34:48.346Z,61.04
2022-10-19T14:37:36.302Z,60.86
2022-10-19T14:40:31.944Z,61.21
2022-10-19T14:43:26.675Z,62.22
2022-10-19T14:46:15.977Z,62.54
2022-10-19T14:49:10.639Z,63.22
2022-10-19T14:52:07.865Z,63.63
2022-10-19T14:55:03.628Z,63.68
2022-10-19T14:57:53.485Z,63.95
2022-10-19T15:00:50.417Z,64.59
2022-10-19T15:03:50.134Z,64.70
2022-10-19T15:06:41.923Z,65.00
2022-10-19T15:09:48.121Z,65.99
2022-10-19T15:12:41.971Z,66.17
2022-10-19T15:15:34.563Z,66.51
2022-10-19T15:18:47.840Z,66.22
2022-10-19T15:21:45.256Z,67.20
2022-10-19T15:24:32.895Z,67.59
2022-10-19T15:27:27.948Z,67.64
2022-10-19T15:30:27.152Z,68.30
2022-10-19T15:33:16.732Z,69.08
2022-10-19T15:36:19.012Z,69.30
2022-10-19T15:39:32.907Z,69.98
2022-10-19T15:42:43.540Z,70.33
2022-10-19T15:46:13.482Z,70.07
2022-10-19T15:49:40.013Z,70.88
2022-10-19T15:52:33.120Z,71.41
2022-10-19T15:55:22.015Z,72.24
2022-10-19T15:58:13.176Z,72.38
2022-10-19T16:00:59.450Z,72.62
2022-10-19T16:03:46.360Z,73.67
2022-10-19T16:06:36.062Z,73.96
2022-10-19T16:09:28.125Z,74.77
2022-10-19T16:12:14.745Z,74.80
2022-10-19T16:15:01.566Z,75.04
2022-10-19T16:17:58.889Z,75.33
2022-10-19T16:20:45.595Z,75.78
2022-10-19T16:23:40.960Z,75.70
2022-10-19T16:26:31.415Z,75.57
2022-10-19T16:29:18.020Z,75.92
2022-10-19T16:32:04.819Z,75.63
2022-10-19T16:34:51.451Z,75.69
2022-10-19T16:37:42.703Z,75.74
2022-10-19T16:40:32.111Z,75.97
2022-10-19T16:43:18.830Z,75.74
2022-10-19T16:46:06.270Z,76.31
2022-10-19T16:48:53.456Z,76.58
2022-10-19T16:51:41.903Z,76.35
2022-10-19T16:54:33.479Z,76.12
2022-10-19T16:57:20.441Z,76.60
2022-10-19T17:00:09.039Z,76.69
2022-10-19T17:02:55.674Z,76.80
2022-10-19T17:05:42.528Z,77.06
2022-10-19T17:08:36.894Z,77.36
2022-10-19T17:11:28.897Z,77.22
2022-10-19T17:14:15.885Z,77.67
2022-10-19T17:17:02.812Z,77.44
2022-10-19T17:19:51.880Z,77.25
2022-10-19T17:22:38.689Z,77.91
2022-10-19T17:25:25.577Z,77.72
2022-10-19T17:28:12.767Z,77.59
2022-10-19T17:31:07.701Z,77.76
2022-10-19T17:33:54.801Z,78.16
2022-10-19T17:36:45.291Z,77.83
2022-10-19T17:39:32.102Z,77.69
2022-10-19T17:42:18.758Z,78.22
2022-10-19T17:45:06.354Z,78.27
2022-10-19T17:47:53.013Z,78.26
2022-10-19T17:50:39.218Z,78.53
2022-10-19T17:53:26.179Z,78.61
2022-10-19T17:56:14.964Z,79.20
2022-10-19T17:59:04.293Z,79.50
2022-10-19T18:02:10.228Z,79.55
2022-10-19T18:04:57.969Z,79.74
2022-10-19T18:07:48.664Z,80.15
2022-10-19T18:10:36.373Z,80.25
2022-10-19T18:13:23.026Z,80.25
2022-10-19T18:16:27.041Z,81.15
2022-10-19T18:19:15.071Z,80.84
2022-10-19T18:22:02.166Z,80.62
2022-10-19T18:24:49.025Z,80.95
2022-10-19T18:27:35.911Z,80.73
2022-10-19T18:30:22.468Z,80.82
2022-10-19T18:33:09.204Z,81.12
2022-10-19T18:35:57.910Z,80.82
2022-10-19T18:38:44.428Z,81.31
2022-10-19T18:41:31.677Z,81.21
2022-10-19T18:44:23.465Z,81.30
2022-10-19T18:47:12.958Z,81.51
2022-10-19T18:49:59.372Z,81.37
2022-10-19T18:52:45.814Z,80.99
2022-10-19T18:55:32.908Z,80.91
2022-10-19T18:58:19.156Z,80.94
2022-10-19T19:01:12.398Z,80.72
2022-10-19T19:04:06.986Z,80.78
2022-10-19T19:06:53.379Z,80.53
2022-10-19T19:09:40.247Z,80.60
2022-10-19T19:12:26.954Z,80.75
2022-10-19T19:15:13.519Z,80.37
2022-10-19T19:17:59.844Z,80.65
2022-10-19T19:20:46.400Z,80.68
2022-10-19T19:23:33.049Z,80.55
2022-10-19T19:26:21.923Z,80.20
2022-10-19T19:29:08.639Z,80.00
2022-10-19T19:31:55.065Z,80.12
2022-10-19T19:34:45.835Z,79.55
2022-10-19T19:37:35.178Z,79.30
2022-10-19T19:40:22.630Z,79.06
2022-10-19T19:43:10.302Z,79.55
2022-10-19T19:46:04.761Z,79.36
2022-10-19T19:49:00.612Z,79.37
2022-10-19T19:51:49.121Z,79.43
2022-10-19T19:54:35.528Z,79.78
2022-10-19T19:57:22.075Z,79.29
2022-10-19T20:00:09.547Z,79.41
2022-10-19T20:02:59.655Z,79.71
2022-10-19T20:05:46.746Z,79.62
2022-10-19T20:08:35.541Z,79.83
2022-10-19T20:11:24.213Z,80.30
2022-10-19T20:14:11.777Z,80.28
2022-10-19T20:16:58.612Z,79.80
2022-10-19T20:19:45.052Z,80.48
2022-10-19T20:22:31.693Z,80.28
2022-10-19T20:25:29.610Z,80.60
2022-10-19T20:28:19.887Z,81.14
2022-10-19T20:31:08.609Z,81.14
2022-10-19T20:33:56.553Z,81.38
2022-10-19T20:36:43.053Z,81.88
2022-10-19T20:39:32.156Z,81.96
2022-10-19T20:42:18.809Z,82.19
2022-10-19T20:45:05.974Z,81.99
2022-10-19T20:47:52.396Z,82.19
2022-10-19T20:50:42.240Z,82.29
2022-10-19T20:53:28.853Z,81.97
2022-10-19T20:56:22.619Z,82.09
2022-10-19T20:59:16.601Z,82.23
2022-10-19T21:02:02.849Z,82.39
2022-10-19T21:04:51.764Z,82.22
2022-10-19T21:07:38.278Z,82.27
2022-10-19T21:10:24.857Z,82.42
2022-10-19T21:13:11.106Z,82.50
2022-10-19T21:15:57.575Z,82.42
2022-10-19T21:18:46.715Z,82.49
2022-10-19T21:21:40.136Z,82.41
2022-10-19T21:24:33.753Z,81.95
2022-10-19T21:27:20.279Z,81.70
2022-10-19T21:30:07.892Z,81.94
2022-10-19T21:32:54.018Z,81.80
2022-10-19T21:35:40.264Z,81.86
2022-10-19T21:38:26.898Z,81.75
2022-10-19T21:41:20.771Z,82.20
2022-10-19T21:44:10.201Z,82.09
2022-10-19T21:46:56.553Z,82.24
2022-10-19T21:49:42.843Z,82.19
2022-10-19T21:52:29.510Z,82.70
2022-10-19T21:55:16.157Z,82.62
2022-10-19T21:58:04.504Z,82.61
2022-10-19T22:00:51.021Z,82.00
2022-10-19T22:03:37.673Z,82.02
2022-10-19T22:06:29.505Z,81.80
2022-10-19T22:09:22.687Z,81.80
2022-10-19T22:12:08.994Z,81.61
2022-10-19T22:14:55.398Z,81.73
2022-10-19T22:17:42.291Z,81.19
2022-10-19T22:20:28.924Z,81.30
2022-10-19T22:23:14.827Z,80.82
2022-10-19T22:26:01.102Z,80.90
2022-10-19T22:28:47.991Z,80.65
2022-10-19T22:31:36.009Z,80.68
2022-10-19T22:34:22.215Z,80.76
2022-10-19T22:37:08.510Z,80.08
2022-10-19T22:39:54.863Z,79.95
2022-10-19T22:43:52.825Z,79.87
2022-10-19T22:46:58.230Z,79.79
2022-10-19T22:49:47.117Z,79.39
2022-10-19T22:52:33.790Z,79.44
2022-10-19T22:55:21.190Z,78.98
2022-10-19T22:58:08.416Z,78.82
2022-10-19T23:01:08.504Z,79.04
2022-10-19T23:03:55.291Z,78.83
2022-10-19T23:06:41.617Z,78.44
2022-10-19T23:09:27.543Z,78.62
2022-10-19T23:12:13.975Z,78.27
2022-10-19T23:15:00.257Z,78.25
2022-10-19T23:17:46.242Z,78.13
2022-10-19T23:20:32.330Z,78.05
2022-10-19T23:23:18.594Z,77.98
2022-10-19T23:26:04.698Z,78.04
2022-10-19T23:28:51.760Z,77.45
2022-10-19T23:31:37.978Z,77.58
2022-10-19T23:34:24.423Z,77.28
2022-10-19T23:37:10.587Z,77.32
2022-10-19T23:39:56.721Z,77.16
2022-10-19T23:42:43.434Z,77.02
2022-10-19T23:45:30.072Z,77.23
2022-10-19T23:48:16.549Z,77.02
2022-10-19T23:51:12.811Z,77.19
2022-10-19T23:53:59.345Z,77.33
2022-10-19T23:56:45.850Z,76.99
2022-10-19T23:59:32.230Z,77.18
